Terminal Aerodrome Forecast
Issued by NWS

Home | Current Version | Previous Version | Text Only | Print | Product List | Glossary On
Versions: 1 2 3 4 5 6 7 8 9 10 11 12 13 14 15 16
000
FTUS46 KLOX 210100 AAB
TAFVNY
TAF AMD
KVNY 210151Z 2102/2124 17010KT P6SM FEW080
     FM210500 15005KT P6SM SCT011
     FM210800 14004KT P6SM OVC015
     FM211100 VRB03KT 6SM -DZ BR BKN010 OVC020
     FM211600 15005KT P6SM BKN015
     FM211800 17010KT P6SM SCT020=

USA.gov is the U.S. government's official web portal to all federal, state and local government web resources and services.